Time;durP1;ratioP1;P1;durP2;ratioP2;P2;SDS_P1;SDS_P2;PMS_P1;PMS_P2;Temp;Humidity;BMP_temperature;BMP_pressure;BME280_temperature;BME280_humidity;BME280_pressure;Samples;Min_cycle;Max_cycle;Signal;HPM_P1;HPM_P2
2022/08/16 00:01:12;;;;;;;7.67;4.97;;;;;;;20.56;69.62;100410.50;5202404;28;20045;-77
2022/08/16 00:03:44;;;;;;;7.90;5.33;;;;;;;20.71;69.45;100413.19;5223142;28;20052;-76
2022/08/16 00:06:16;;;;;;;8.57;5.10;;;;;;;20.59;69.45;100410.31;5223860;28;20611;-77
2022/08/16 00:08:47;;;;;;;7.80;5.20;;;;;;;20.67;69.03;100412.53;5223711;28;20119;-76
2022/08/16 00:11:20;;;;;;;8.70;5.60;;;;;;;20.64;69.51;100420.66;5223629;28;20487;-77
2022/08/16 00:13:51;;;;;;;8.13;5.07;;;;;;;20.61;70.04;100414.66;5223341;28;20479;-76
2022/08/16 00:16:28;;;;;;;8.47;5.00;;;;;;;20.40;70.64;100417.69;5223246;28;20029;-76
2022/08/16 00:19:00;;;;;;;11.57;5.40;;;;;;;20.53;70.25;100417.78;5223300;28;20037;-77
2022/08/16 00:21:32;;;;;;;8.27;5.23;;;;;;;20.43;70.10;100416.63;5208810;28;20045;-77
2022/08/16 00:24:03;;;;;;;;;;;;;;;20.54;68.04;100422.13;5233925;28;20369;-76
2022/08/16 00:26:35;;;;;;;11.50;6.70;;;;;;;20.34;70.18;100423.31;5230028;28;19921;-77
2022/08/16 00:29:06;;;;;;;12.17;6.67;;;;;;;20.30;70.47;100430.59;5224680;28;20529;-77
2022/08/16 00:31:38;;;;;;;9.53;6.17;;;;;;;20.34;70.94;100436.56;5223083;28;20092;-76
2022/08/16 00:34:09;;;;;;;8.10;5.80;;;;;;;20.29;71.06;100433.34;5205252;28;20033;-76
2022/08/16 00:36:40;;;;;;;10.30;6.53;;;;;;;20.23;71.65;100430.09;5223179;28;20061;-76
2022/08/16 00:39:14;;;;;;;11.17;7.03;;;;;;;20.20;71.56;100434.72;5223499;28;20030;-76
2022/08/16 00:41:47;;;;;;;12.10;6.50;;;;;;;20.14;71.50;100428.00;5223623;28;20478;-76
2022/08/16 00:44:21;;;;;;;10.48;7.03;;;;;;;20.27;71.51;100432.56;5222731;28;20053;-76
2022/08/16 00:47:00;;;;;;;8.15;6.15;;;;;;;20.23;71.85;100429.25;5205305;28;20029;-76
2022/08/16 00:49:33;;;;;;;13.38;6.53;;;;;;;20.32;71.28;100431.34;5222789;28;20108;-76
2022/08/16 00:52:04;;;;;;;14.00;6.65;;;;;;;20.16;71.89;100427.91;5222545;28;20101;-76
2022/08/16 00:54:36;;;;;;;11.40;6.17;;;;;;;20.20;72.09;100438.22;5222776;28;20041;-76
2022/08/16 00:57:08;;;;;;;9.23;6.10;;;;;;;20.03;71.65;100444.50;5222800;28;20044;-76
2022/08/16 00:59:39;;;;;;;17.58;8.38;;;;;;;19.94;72.29;100442.38;5223012;28;20030;-76
2022/08/16 01:02:12;;;;;;;12.43;7.43;;;;;;;19.97;72.51;100436.91;5222646;28;20029;-75
2022/08/16 01:04:43;;;;;;;15.05;7.85;;;;;;;20.00;72.73;100439.38;5205906;28;20026;-76
2022/08/16 01:07:15;;;;;;;12.67;7.27;;;;;;;19.88;72.99;100439.25;5223021;28;20388;-76
2022/08/16 01:09:46;;;;;;;9.90;8.10;;;;;;;19.93;73.24;100437.16;5222947;28;20037;-75
2022/08/16 01:12:19;;;;;;;11.43;7.43;;;;;;;20.06;73.03;100440.84;5223057;28;20034;-76
2022/08/16 01:14:55;;;;;;;13.52;7.93;;;;;;;19.99;73.42;100448.25;5225804;28;20546;-76
2022/08/16 01:17:29;;;;;;;14.63;7.85;;;;;;;19.95;73.84;100441.44;5224650;28;20077;-75
2022/08/16 01:20:05;;;;;;;15.82;8.80;;;;;;;19.81;74.75;100436.94;5223248;28;20030;-76
2022/08/16 01:22:55;;;;;;;11.30;8.18;;;;;;;19.93;74.51;100434.53;5222389;28;20034;-76
2022/08/16 01:25:32;;;;;;;11.20;7.93;;;;;;;19.86;74.51;100428.75;5223056;28;20040;-76
2022/08/16 01:28:09;;;;;;;14.50;8.57;;;;;;;19.97;74.20;100436.91;5222422;28;20143;-77
2022/08/16 01:30:45;;;;;;;16.88;8.70;;;;;;;19.77;74.70;100438.06;5222350;28;20029;-76
2022/08/16 01:33:19;;;;;;;10.80;8.00;;;;;;;19.72;74.73;100441.88;5221834;28;20455;-76
2022/08/16 01:35:55;;;;;;;10.80;8.50;;;;;;;19.78;75.22;100445.03;5221909;28;20038;-77
2022/08/16 01:38:30;;;;;;;10.02;8.35;;;;;;;19.81;74.75;100438.75;5222594;28;20041;-76
2022/08/16 01:41:18;;;;;;;9.50;8.45;;;;;;;19.81;74.46;100444.88;5222694;28;20452;-75
2022/08/16 01:43:50;;;;;;;10.02;8.73;;;;;;;19.84;74.61;100439.41;5222295;28;20144;-76
2022/08/16 01:46:27;;;;;;;13.75;9.15;;;;;;;19.61;75.26;100439.81;5221817;28;20042;-75
2022/08/16 01:49:05;;;;;;;10.75;8.80;;;;;;;19.42;76.01;100440.00;5221482;28;20030;-76
2022/08/16 01:51:38;;;;;;;15.10;9.23;;;;;;;19.46;75.79;100441.53;5221863;28;20072;-76
2022/08/16 01:54:10;;;;;;;13.07;9.52;;;;;;;19.46;76.13;100438.88;5221474;28;20042;-76
2022/08/16 01:56:42;;;;;;;11.98;9.00;;;;;;;19.47;76.18;100437.97;5222194;28;20026;-75
2022/08/16 01:59:14;;;;;;;11.33;9.50;;;;;;;19.29;76.45;100431.91;5222202;28;20488;-75
2022/08/16 02:01:46;;;;;;;;;;;;;;;19.50;74.28;100446.56;5221942;28;20058;-76
2022/08/16 02:04:20;;;;;;;13.13;9.15;;;;;;;19.29;76.10;100442.47;5221642;28;19909;-76
2022/08/16 02:06:52;;;;;;;12.65;10.18;;;;;;;19.30;76.28;100447.69;5221807;28;20490;-75
2022/08/16 02:09:25;;;;;;;11.63;10.45;;;;;;;19.13;76.46;100447.75;5221504;28;20038;-76
2022/08/16 02:11:58;;;;;;;13.02;10.00;;;;;;;19.17;77.01;100446.63;5221827;28;20034;-76
2022/08/16 02:14:29;;;;;;;13.45;11.05;;;;;;;19.13;76.82;100445.09;5221403;28;20497;-76
2022/08/16 02:17:04;;;;;;;16.43;10.40;;;;;;;19.01;77.45;100443.09;5221462;28;20034;-77
2022/08/16 02:19:39;;;;;;;12.77;11.43;;;;;;;19.14;77.28;100444.13;5221069;28;20323;-76
2022/08/16 02:22:13;;;;;;;12.05;10.82;;;;;;;18.92;77.66;100437.38;5221304;28;20451;-76
2022/08/16 02:24:45;;;;;;;13.15;11.48;;;;;;;19.01;77.52;100443.09;5220971;28;20356;-76
2022/08/16 02:27:17;;;;;;;16.60;12.43;;;;;;;19.04;77.53;100451.72;5221914;28;20042;-76
2022/08/16 02:29:48;;;;;;;13.20;11.82;;;;;;;18.71;78.30;100446.41;5221399;28;20497;-76
2022/08/16 02:32:20;;;;;;;20.93;13.47;;;;;;;18.69;78.67;100446.50;5221122;28;20029;-76
2022/08/16 02:34:51;;;;;;;14.63;12.17;;;;;;;18.69;78.94;100442.97;5221152;28;20446;-76
2022/08/16 02:37:23;;;;;;;14.03;12.63;;;;;;;18.69;78.94;100440.34;5221016;28;20040;-76
2022/08/16 02:39:54;;;;;;;12.97;10.97;;;;;;;18.84;78.60;100444.84;5220979;28;20033;-75
2022/08/16 02:42:26;;;;;;;14.63;11.83;;;;;;;18.69;79.15;100438.56;5220682;28;20038;-75
2022/08/16 02:44:57;;;;;;;13.98;12.43;;;;;;;18.82;79.34;100436.13;5221170;28;20022;-75
2022/08/16 02:47:29;;;;;;;15.93;13.17;;;;;;;18.61;79.93;100431.97;5221056;28;20530;-76
2022/08/16 02:50:00;;;;;;;14.63;11.60;;;;;;;18.55;80.08;100431.34;5220475;28;20040;-76
2022/08/16 02:52:32;;;;;;;17.63;12.93;;;;;;;18.49;80.27;100431.66;5220678;28;20454;-76
2022/08/16 02:55:04;;;;;;;13.40;12.00;;;;;;;18.41;81.07;100432.06;5221094;28;20030;-76
2022/08/16 02:57:35;;;;;;;14.55;12.63;;;;;;;18.49;80.77;100434.31;5220460;28;20026;-76
2022/08/16 03:00:11;;;;;;;16.93;12.87;;;;;;;18.41;81.40;100433.84;5220692;28;20375;-76
2022/08/16 03:02:44;;;;;;;16.58;12.63;;;;;;;18.39;81.32;100428.66;5220453;28;20033;-75
2022/08/16 03:05:15;;;;;;;14.13;12.63;;;;;;;18.42;82.02;100422.38;5220569;28;20172;-75
2022/08/16 03:07:47;;;;;;;14.00;11.57;;;;;;;18.37;82.41;100427.00;5220859;28;20034;-76
2022/08/16 03:10:18;;;;;;;14.27;12.60;;;;;;;18.35;82.26;100424.47;5221142;28;20041;-76
2022/08/16 03:12:50;;;;;;;15.07;13.30;;;;;;;18.35;82.21;100427.13;5220946;28;20030;-76
2022/08/16 03:15:21;;;;;;;14.77;12.97;;;;;;;18.34;82.27;100424.56;5220769;28;20477;-76
2022/08/16 03:17:53;;;;;;;18.60;13.33;;;;;;;18.31;82.53;100427.34;5202602;28;20530;-77
2022/08/16 03:20:25;;;;;;;13.57;12.13;;;;;;;18.34;82.53;100429.84;5220537;28;20034;-76
2022/08/16 03:22:56;;;;;;;15.85;13.07;;;;;;;18.29;82.69;100424.78;5220423;28;20582;-77
2022/08/16 03:25:28;;;;;;;14.77;12.83;;;;;;;18.37;83.13;100430.53;5202602;28;20128;-77
2022/08/16 03:28:00;;;;;;;14.70;12.60;;;;;;;18.33;82.76;100426.31;5220494;28;20467;-76
2022/08/16 03:30:34;;;;;;;13.13;11.87;;;;;;;18.41;82.22;100420.66;5221056;28;20145;-77
2022/08/16 03:33:05;;;;;;;14.88;12.95;;;;;;;18.27;82.71;100429.25;5220550;28;20041;-77
2022/08/16 03:35:38;;;;;;;13.93;12.13;;;;;;;18.35;83.08;100429.75;5220692;28;20463;-76
2022/08/16 03:38:13;;;;;;;18.42;12.77;;;;;;;18.31;82.61;100422.91;5222829;28;20030;-77
2022/08/16 03:40:45;;;;;;;14.93;12.70;;;;;;;18.28;82.98;100427.50;5224264;28;20467;-76
2022/08/16 03:43:16;;;;;;;17.63;13.10;;;;;;;18.28;82.91;100435.41;5224199;28;20068;-77
2022/08/16 03:45:50;;;;;;;15.37;13.27;;;;;;;18.14;83.38;100436.09;5224494;28;20054;-76
2022/08/16 03:48:23;;;;;;;17.95;15.02;;;;;;;18.15;83.96;100443.94;5224158;28;20113;-77
2022/08/16 03:50:54;;;;;;;16.15;14.40;;;;;;;18.23;84.23;100446.19;5224044;28;20375;-76
2022/08/16 03:53:29;;;;;;;17.83;14.50;;;;;;;18.12;83.94;100433.53;5224193;28;20034;-76
2022/08/16 03:56:00;;;;;;;16.70;15.10;;;;;;;18.09;84.25;100446.88;5224148;28;20034;-76
2022/08/16 03:58:33;;;;;;;15.73;14.10;;;;;;;18.18;84.31;100448.22;5223974;28;20534;-76
2022/08/16 04:01:05;;;;;;;17.27;14.65;;;;;;;18.15;84.71;100451.00;5223733;28;20034;-76
2022/08/16 04:03:36;;;;;;;18.37;15.83;;;;;;;18.07;84.64;100455.81;5223793;28;20048;-76
2022/08/16 04:06:08;;;;;;;16.30;14.63;;;;;;;18.22;84.86;100460.31;5223598;28;20030;-75
2022/08/16 04:08:39;;;;;;;17.53;15.70;;;;;;;18.03;84.88;100461.22;5223756;28;20033;-76
2022/08/16 04:11:10;;;;;;;17.47;15.50;;;;;;;18.17;84.77;100467.59;5224067;28;20111;-75
2022/08/16 04:13:42;;;;;;;17.30;15.43;;;;;;;18.04;85.20;100462.91;5223997;28;20105;-75
2022/08/16 04:16:16;;;;;;;17.03;15.53;;;;;;;18.16;85.04;100464.13;5223525;28;20030;-75
2022/08/16 04:18:48;;;;;;;17.25;15.60;;;;;;;18.10;85.08;100468.84;5223511;28;20072;-75
2022/08/16 04:21:19;;;;;;;17.80;15.87;;;;;;;18.13;84.97;100468.66;5224441;28;20088;-76
2022/08/16 04:23:50;;;;;;;17.37;15.67;;;;;;;18.12;85.21;100467.81;5223229;28;20355;-76
2022/08/16 04:26:22;;;;;;;18.17;16.33;;;;;;;18.12;84.99;100466.97;5223307;28;20451;-76
2022/08/16 04:28:53;;;;;;;18.80;16.90;;;;;;;18.14;85.08;100471.22;5223740;28;20100;-74
2022/08/16 04:31:25;;;;;;;19.13;15.87;;;;;;;18.09;85.36;100467.97;5222972;28;20092;-75
2022/08/16 04:33:58;;;;;;;20.00;17.17;;;;;;;18.13;85.23;100466.91;5223365;28;20056;-75
2022/08/16 04:36:29;;;;;;;18.35;16.45;;;;;;;18.13;85.58;100468.66;5222417;28;20078;-75
2022/08/16 04:39:00;;;;;;;20.30;15.90;;;;;;;18.18;85.41;100462.25;5223178;28;20058;-74
2022/08/16 04:41:32;;;;;;;18.90;17.00;;;;;;;18.15;85.59;100466.84;5223383;28;20053;-75
2022/08/16 04:44:04;;;;;;;21.55;16.98;;;;;;;18.22;85.61;100476.13;5204366;28;20049;-76
2022/08/16 04:46:35;;;;;;;18.83;17.02;;;;;;;18.13;85.53;100474.81;5221987;28;20037;-75
2022/08/16 04:49:07;;;;;;;20.90;16.57;;;;;;;18.17;85.61;100473.72;5221267;28;20391;-75
2022/08/16 04:51:41;;;;;;;19.10;17.10;;;;;;;18.17;86.00;100473.72;5221823;28;20034;-75
2022/08/16 04:54:13;;;;;;;19.77;17.55;;;;;;;18.23;85.87;100475.22;5222070;28;20096;-75
2022/08/16 04:56:44;;;;;;;22.43;18.40;;;;;;;18.16;85.77;100476.44;5221708;28;20037;-76
2022/08/16 04:59:16;;;;;;;19.67;17.77;;;;;;;18.24;86.31;100471.66;5222718;28;20081;-75
2022/08/16 05:01:47;;;;;;;18.73;16.83;;;;;;;18.19;85.76;100473.66;5221947;28;20034;-76
2022/08/16 05:04:18;;;;;;;25.90;18.63;;;;;;;18.26;85.82;100474.19;5222111;28;20036;-76
2022/08/16 05:06:55;;;;;;;19.07;17.13;;;;;;;18.19;85.72;100476.28;5222351;28;20068;-75
2022/08/16 05:09:26;;;;;;;19.85;17.15;;;;;;;18.23;86.24;100481.34;5221619;28;20092;-76
2022/08/16 05:11:57;;;;;;;20.80;16.50;;;;;;;18.35;85.86;100481.66;5221819;28;20050;-76
2022/08/16 05:14:29;;;;;;;18.63;16.70;;;;;;;18.29;86.09;100484.59;5221825;28;20070;-75
2022/08/16 05:17:00;;;;;;;22.63;18.20;;;;;;;18.35;85.65;100481.66;5221357;28;20030;-75
2022/08/16 05:19:31;;;;;;;20.70;17.23;;;;;;;18.36;85.77;100484.22;5221205;28;20108;-75
2022/08/16 05:22:03;;;;;;;18.47;15.90;;;;;;;18.29;84.78;100489.88;5203584;28;20030;-75
2022/08/16 05:24:34;;;;;;;17.80;15.87;;;;;;;18.25;85.15;100489.19;5221372;28;20411;-75
2022/08/16 05:27:06;;;;;;;16.63;15.03;;;;;;;18.24;84.78;100492.75;5221698;28;20040;-75
2022/08/16 05:29:37;;;;;;;17.53;15.83;;;;;;;18.22;84.55;100494.59;5221751;28;20092;-76
2022/08/16 05:32:09;;;;;;;18.00;16.13;;;;;;;18.23;84.55;100497.16;5221450;28;20061;-75
2022/08/16 05:34:40;;;;;;;21.17;17.33;;;;;;;18.22;84.15;100495.47;5221069;28;20073;-75
2022/08/16 05:37:12;;;;;;;19.17;16.07;;;;;;;18.26;84.59;100495.28;5221111;28;20053;-75
2022/08/16 05:39:43;;;;;;;17.30;15.50;;;;;;;18.32;84.89;100501.16;5220863;28;20022;-75
2022/08/16 05:42:15;;;;;;;17.83;15.73;;;;;;;18.28;84.73;100504.00;5221615;28;20482;-76
2022/08/16 05:44:46;;;;;;;18.83;16.90;;;;;;;18.29;84.94;100503.94;5165695;28;1105454;-75
2022/08/16 05:47:18;;;;;;;20.47;16.67;;;;;;;18.33;84.03;100512.56;5222106;28;20041;-76
2022/08/16 05:49:49;;;;;;;18.00;16.10;;;;;;;18.40;84.32;100512.19;5221569;28;20068;-76
2022/08/16 05:52:20;;;;;;;17.73;15.97;;;;;;;18.49;85.48;100520.56;5222350;28;20038;-76
2022/08/16 05:54:52;;;;;;;17.47;15.13;;;;;;;18.58;84.81;100518.31;5221907;28;20026;-76
2022/08/16 05:57:24;;;;;;;17.60;15.87;;;;;;;18.64;84.74;100513.66;5221324;28;20026;-76
2022/08/16 05:59:55;;;;;;;19.67;17.48;;;;;;;18.68;82.53;100515.22;5203036;28;20065;-76
2022/08/16 06:02:29;;;;;;;18.43;16.47;;;;;;;18.68;81.82;100517.84;5221292;28;20038;-76
2022/08/16 06:05:01;;;;;;;17.58;15.90;;;;;;;18.67;80.91;100524.91;5221375;28;20026;-76
2022/08/16 06:07:33;;;;;;;22.50;15.88;;;;;;;18.78;81.73;100530.47;5203803;28;20033;-76
2022/08/16 06:10:05;;;;;;;20.17;16.13;;;;;;;18.86;81.05;100531.94;5221894;28;20383;-76
2022/08/16 06:12:38;;;;;;;17.05;15.25;;;;;;;18.87;80.26;100531.84;5220992;28;20054;-76
2022/08/16 06:15:13;;;;;;;17.38;15.77;;;;;;;18.93;80.17;100531.53;5221335;28;20026;-76
2022/08/16 06:17:46;;;;;;;17.95;16.13;;;;;;;19.01;80.03;100536.41;5222006;28;20087;-76
2022/08/16 06:20:24;;;;;;;20.52;16.42;;;;;;;19.11;79.90;100536.75;5222044;28;20030;-76
2022/08/16 06:22:57;;;;;;;16.77;14.98;;;;;;;19.14;78.78;100528.69;5221465;28;20478;-76
2022/08/16 06:25:29;;;;;;;17.88;15.60;;;;;;;19.19;78.49;100537.25;5221949;28;20109;-76
2022/08/16 06:28:00;;;;;;;17.33;15.57;;;;;;;19.24;77.62;100534.34;5220930;28;20026;-77
2022/08/16 06:30:31;;;;;;;19.43;15.80;;;;;;;19.33;78.94;100541.78;5222229;28;20045;-75
2022/08/16 06:33:03;;;;;;;17.57;15.10;;;;;;;19.41;77.40;100546.66;5223077;28;20037;-76
2022/08/16 06:35:35;;;;;;;17.90;15.77;;;;;;;19.46;77.93;100549.91;5221269;28;20033;-77
2022/08/16 06:38:06;;;;;;;18.40;15.23;;;;;;;19.50;76.42;100554.09;5221133;28;20109;-78
2022/08/16 06:40:38;;;;;;;18.07;15.17;;;;;;;19.55;76.43;100549.41;5220999;28;20453;-77
2022/08/16 06:43:09;;;;;;;18.50;15.17;;;;;;;19.64;77.13;100548.94;5221140;28;20069;-77
2022/08/16 06:45:42;;;;;;;17.47;15.60;;;;;;;19.67;75.73;100547.88;5203648;28;20034;-78
2022/08/16 06:48:13;;;;;;;17.45;15.73;;;;;;;19.74;75.61;100553.69;5203332;28;20089;-77
2022/08/16 06:50:47;;;;;;;17.33;15.48;;;;;;;19.81;75.96;100557.75;5220708;28;20030;-76
2022/08/16 06:53:19;;;;;;;17.58;15.70;;;;;;;19.91;75.38;100556.28;5220828;28;20026;-78
2022/08/16 06:55:56;;;;;;;19.33;16.05;;;;;;;19.95;74.58;100554.34;5221300;28;20030;-78
2022/08/16 06:58:27;;;;;;;17.13;14.98;;;;;;;20.07;74.20;100555.44;5221604;28;20104;-77
2022/08/16 07:01:00;;;;;;;16.97;15.27;;;;;;;20.11;75.28;100547.25;5221019;28;20118;-76
2022/08/16 07:03:31;;;;;;;19.58;15.85;;;;;;;20.17;74.56;100556.63;5221703;28;20061;-76
2022/08/16 07:06:04;;;;;;;16.67;15.07;;;;;;;20.32;74.06;100557.56;5232838;28;20030;-76
2022/08/16 07:08:36;;;;;;;19.52;15.48;;;;;;;20.43;73.09;100559.59;5229466;28;20022;-75
2022/08/16 07:11:08;;;;;;;15.88;14.32;;;;;;;20.51;74.11;100560.88;5223848;28;20096;-76
2022/08/16 07:13:39;;;;;;;17.73;15.93;;;;;;;20.55;72.25;100569.47;5187319;28;20429;-77
2022/08/16 07:16:15;;;;;;;17.03;14.37;;;;;;;20.57;73.64;100565.78;5221526;28;20312;-77
2022/08/16 07:18:47;;;;;;;17.05;15.35;;;;;;;20.64;71.66;100560.16;5220670;28;20034;-76
2022/08/16 07:21:19;;;;;;;20.10;14.55;;;;;;;20.76;71.69;100568.25;5220914;28;20026;-77
2022/08/16 07:23:50;;;;;;;16.47;14.80;;;;;;;20.91;71.59;100570.91;5203727;28;20064;-76
2022/08/16 07:26:24;;;;;;;19.13;14.07;;;;;;;21.00;71.99;100575.69;5220699;28;20038;-76
2022/08/16 07:28:56;;;;;;;16.90;14.82;;;;;;;21.07;70.80;100573.50;5221216;28;20032;-76
2022/08/16 07:31:27;;;;;;;17.35;15.57;;;;;;;21.18;69.68;100571.06;5220456;28;20034;-77
2022/08/16 07:33:59;;;;;;;16.23;14.63;;;;;;;21.26;70.48;100573.25;5203180;28;20038;-76
2022/08/16 07:36:30;;;;;;;16.13;13.55;;;;;;;21.38;69.40;100579.59;5221506;28;20041;-77
2022/08/16 07:39:01;;;;;;;18.07;14.87;;;;;;;21.40;69.19;100575.91;5203464;28;20498;-77
2022/08/16 07:41:35;;;;;;;16.40;14.30;;;;;;;21.44;68.27;100585.38;5222339;28;20038;-77
2022/08/16 07:44:06;;;;;;;18.38;13.60;;;;;;;21.53;67.74;100588.47;5222814;28;20061;-78
2022/08/16 07:46:37;;;;;;;14.17;12.70;;;;;;;21.57;67.88;100588.16;5220655;28;20022;-77
2022/08/16 07:49:09;;;;;;;14.80;13.30;;;;;;;21.63;67.88;100598.38;5220416;28;20084;-78
2022/08/16 07:51:40;;;;;;;29.80;13.37;;;;;;;21.64;67.45;100604.56;5220608;28;20048;-77
2022/08/16 07:54:12;;;;;;;14.67;12.27;;;;;;;21.67;68.78;100596.41;5220348;28;20064;-76
2022/08/16 07:56:43;;;;;;;17.80;13.17;;;;;;;21.76;67.72;100594.97;5203091;28;20034;-77
2022/08/16 07:59:14;;;;;;;15.83;13.53;;;;;;;21.80;66.02;100604.44;5220408;28;20045;-78
2022/08/16 08:01:46;;;;;;;17.13;12.93;;;;;;;21.90;66.47;100596.78;5220317;28;20103;-78
2022/08/16 08:04:18;;;;;;;19.00;11.80;;;;;;;22.01;65.46;100599.59;5220149;28;20033;-77
2022/08/16 08:06:50;;;;;;;15.48;13.80;;;;;;;21.95;64.06;100597.31;5220437;28;20030;-77
2022/08/16 08:09:22;;;;;;;;;;;;;;;22.24;65.59;100607.88;5220261;28;20117;-76
2022/08/16 08:11:53;;;;;;;15.53;12.03;;;;;;;22.18;63.81;100606.47;5219046;28;20359;-78
2022/08/16 08:14:24;;;;;;;13.57;11.80;;;;;;;22.26;64.62;100609.47;5220773;28;20072;-76
2022/08/16 08:16:56;;;;;;;12.47;11.17;;;;;;;22.41;64.52;100612.94;5220446;28;20034;-77
2022/08/16 08:19:27;;;;;;;15.00;12.60;;;;;;;22.39;62.33;100617.53;5220647;28;20060;-78
2022/08/16 08:21:59;;;;;;;17.37;13.13;;;;;;;22.37;62.35;100609.66;5220818;28;20076;-78
2022/08/16 08:24:31;;;;;;;17.70;12.73;;;;;;;22.48;62.98;100611.63;5222935;28;20026;-77
2022/08/16 08:27:05;;;;;;;14.80;13.20;;;;;;;22.59;62.13;100618.88;5223952;28;20030;-78
2022/08/16 08:29:37;;;;;;;13.40;12.10;;;;;;;22.68;65.01;100609.44;5223684;28;20037;-75
2022/08/16 08:32:09;;;;;;;12.77;11.45;;;;;;;22.93;63.28;100612.16;5223583;28;20026;-76
2022/08/16 08:34:40;;;;;;;;;;;;;;;23.16;62.86;100609.78;5224004;28;20034;-75
2022/08/16 08:37:12;;;;;;;14.40;11.23;;;;;;;23.26;61.32;100610.00;5223623;28;19921;-75
2022/08/16 08:39:44;;;;;;;16.08;12.00;;;;;;;23.20;58.09;100608.63;5224185;28;20073;-79
2022/08/16 08:42:15;;;;;;;18.10;11.43;;;;;;;23.38;59.42;100618.94;5223532;28;20073;-78
2022/08/16 08:44:47;;;;;;;21.07;10.97;;;;;;;23.39;60.65;100615.31;5189051;28;20054;-77
2022/08/16 08:47:19;;;;;;;22.00;13.33;;;;;;;23.53;59.08;100614.38;5223321;28;20092;-77
2022/08/16 08:49:51;;;;;;;10.95;9.00;;;;;;;23.67;58.36;100615.09;5223394;28;20273;-76
2022/08/16 08:52:22;;;;;;;14.02;9.82;;;;;;;23.65;56.73;100617.00;5223371;28;20128;-77
2022/08/16 08:54:54;;;;;;;12.73;8.77;;;;;;;23.79;57.10;100618.69;5223008;28;20091;-77
2022/08/16 08:57:25;;;;;;;12.50;8.30;;;;;;;23.96;60.36;100617.53;5205865;28;20026;-77
2022/08/16 08:59:57;;;;;;;10.23;8.47;;;;;;;24.05;54.87;100618.66;5223780;28;20033;-76
2022/08/16 09:02:29;;;;;;;14.55;9.98;;;;;;;24.07;54.71;100630.06;5223253;28;20026;-81
2022/08/16 09:05:00;;;;;;;15.50;10.03;;;;;;;24.17;53.37;100622.25;5224364;28;20069;-82
2022/08/16 09:07:32;;;;;;;11.83;8.00;;;;;;;24.27;54.25;100631.28;5223781;28;20642;-78
2022/08/16 09:10:05;;;;;;;15.05;9.70;;;;;;;24.35;52.63;100630.72;5223863;28;20509;-80
2022/08/16 09:12:38;;;;;;;13.48;7.35;;;;;;;24.51;55.00;100628.63;5224044;28;20379;-80
2022/08/16 09:15:12;;;;;;;11.32;7.25;;;;;;;24.59;54.29;100619.25;5223066;28;20021;-80
2022/08/16 09:17:43;;;;;;;14.27;7.90;;;;;;;24.52;51.20;100642.78;5223733;28;20474;-82
2022/08/16 09:20:15;;;;;;;11.10;7.78;;;;;;;24.48;51.51;100641.31;5206926;28;20041;-83
2022/08/16 09:22:49;;;;;;;8.32;6.90;;;;;;;24.40;52.36;100632.06;5223798;28;20030;-76
2022/08/16 09:25:21;;;;;;;15.07;8.88;;;;;;;24.45;50.47;100639.72;5223009;28;20157;-82
2022/08/16 09:27:53;;;;;;;13.63;7.10;;;;;;;24.55;54.47;100631.91;5223237;28;20037;-81
2022/08/16 09:30:25;;;;;;;12.88;7.88;;;;;;;24.78;51.34;100627.56;5205626;28;20042;-79
2022/08/16 09:32:57;;;;;;;9.95;6.70;;;;;;;25.06;49.81;100633.47;5206360;28;20133;-81
2022/08/16 09:35:28;;;;;;;11.52;7.05;;;;;;;25.13;54.10;100640.00;5203978;28;20508;-81
2022/08/16 09:38:00;;;;;;;12.00;7.60;;;;;;;25.34;49.15;100640.25;5223461;28;20509;-81
2022/08/16 09:40:31;;;;;;;13.20;6.40;;;;;;;25.50;50.32;100642.53;5223211;28;20085;-80
2022/08/16 09:43:03;;;;;;;9.63;5.35;;;;;;;25.73;47.55;100642.53;5223163;28;20088;-80
2022/08/16 09:45:37;;;;;;;8.32;5.13;;;;;;;25.83;44.75;100639.03;5223065;28;20441;-81
2022/08/16 09:48:11;;;;;;;13.02;5.97;;;;;;;25.93;49.11;100636.47;5222594;28;20088;-80
2022/08/16 09:50:43;;;;;;;11.70;5.28;;;;;;;26.16;45.37;100637.34;5222379;28;20124;-82
2022/08/16 09:53:18;;;;;;;12.20;5.80;;;;;;;26.39;44.50;100640.81;5222574;28;20406;-80
2022/08/16 09:55:53;;;;;;;9.90;4.80;;;;;;;26.35;42.57;100638.50;5223104;28;20414;-81
2022/08/16 09:58:26;;;;;;;9.85;4.20;;;;;;;26.78;44.35;100642.16;5222578;28;20122;-81
2022/08/16 10:00:57;;;;;;;5.78;4.03;;;;;;;27.06;41.21;100646.88;5222461;28;20111;-80
2022/08/16 10:03:28;;;;;;;6.38;4.63;;;;;;;27.25;40.72;100651.50;5222866;28;20085;-76
2022/08/16 10:06:00;;;;;;;9.38;4.47;;;;;;;27.42;40.77;100634.03;5187602;28;20038;-77
2022/08/16 10:08:32;;;;;;;6.22;4.60;;;;;;;27.44;39.91;100634.75;5221935;28;20034;-81
2022/08/16 10:13:54;;;;;;;13.85;4.97;;;;;;;27.54;40.25;100637.47;5222539;28;20038;-81
2022/08/16 10:16:26;;;;;;;6.68;4.50;;;;;;;27.84;40.49;100633.09;5223020;28;20463;-80
2022/08/16 10:18:58;;;;;;;;;;;;;;;28.39;40.18;100638.06;5223708;28;20379;-80
2022/08/16 10:21:30;;;;;;;7.65;4.43;;;;;;;28.31;39.51;100643.25;5225975;28;19913;-76
2022/08/16 10:24:02;;;;;;;;;;;;;;;28.65;41.34;100637.53;5222483;28;20104;-77
2022/08/16 10:26:35;;;;;;;7.87;4.00;;;;;;;28.49;39.90;100638.91;5221419;28;20033;-76
2022/08/16 10:29:07;;;;;;;7.03;3.72;;;;;;;28.55;40.20;100641.03;5221369;28;20037;-75
2022/08/16 10:31:38;;;;;;;;;;;;;;;28.83;37.70;100643.03;5222157;28;20327;-76
2022/08/16 10:34:10;;;;;;;6.15;3.92;;;;;;;28.11;37.77;100642.34;5221499;28;19920;-77
2022/08/16 10:36:41;;;;;;;;;;;;;;;28.45;37.73;100642.00;5221729;28;20443;-76
2022/08/16 10:39:13;;;;;;;7.30;3.30;;;;;;;28.56;37.01;100650.78;5221657;28;19962;-75
2022/08/16 10:41:44;;;;;;;5.88;3.80;;;;;;;28.72;36.52;100646.69;5222195;28;20026;-80
2022/08/16 10:44:15;;;;;;;;;;;;;;;29.71;38.08;100641.03;5222268;28;20053;-79
2022/08/16 10:46:47;;;;;;;5.17;3.60;;;;;;;30.16;34.19;100644.81;5221549;28;20362;-79
2022/08/16 10:49:19;;;;;;;6.18;3.85;;;;;;;30.12;33.02;100643.41;5222047;28;20140;-79
2022/08/16 10:51:54;;;;;;;8.68;3.45;;;;;;;30.33;32.73;100653.88;5221869;28;20053;-80
2022/08/16 10:54:26;;;;;;;7.90;3.15;;;;;;;30.40;32.48;100646.94;5221921;28;20030;-81
2022/08/16 10:57:00;;;;;;;7.57;3.80;;;;;;;30.27;31.87;100649.09;5221342;28;20026;-79
2022/08/16 10:59:33;;;;;;;6.70;3.70;;;;;;;30.43;32.10;100653.84;5221002;28;20033;-79
2022/08/16 11:02:04;;;;;;;9.55;5.10;;;;;;;30.46;32.94;100650.84;5221433;28;20030;-79
2022/08/16 11:04:35;;;;;;;8.88;3.75;;;;;;;30.80;33.51;100664.47;5221693;28;20041;-79
2022/08/16 11:07:08;;;;;;;7.93;4.10;;;;;;;30.52;32.97;100667.22;5222159;28;20061;-80
2022/08/16 11:09:40;;;;;;;6.85;4.28;;;;;;;30.79;32.13;100659.25;5221206;28;20398;-79
2022/08/16 11:12:11;;;;;;;7.70;4.05;;;;;;;31.77;32.28;100654.56;5203467;28;20041;-81
2022/08/16 11:14:43;;;;;;;7.32;4.32;;;;;;;31.51;30.56;100668.06;5221230;28;20092;-80
2022/08/16 11:17:14;;;;;;;4.72;3.72;;;;;;;31.45;31.14;100664.13;5221244;28;20053;-80
2022/08/16 11:19:46;;;;;;;6.15;3.83;;;;;;;31.01;33.10;100657.91;5221301;28;20072;-80
2022/08/16 11:22:18;;;;;;;6.60;3.58;;;;;;;30.46;32.02;100667.84;5221349;28;20478;-79
2022/08/16 11:24:50;;;;;;;6.07;3.75;;;;;;;30.11;32.63;100658.69;5203366;28;20040;-80
2022/08/16 11:27:22;;;;;;;7.22;3.92;;;;;;;29.99;33.35;100665.25;5221176;28;20113;-80
2022/08/16 11:29:55;;;;;;;6.25;4.50;;;;;;;29.58;33.33;100662.84;5220913;28;20092;-79
2022/08/16 11:32:28;;;;;;;9.13;4.53;;;;;;;29.22;34.22;100661.81;5220683;28;20034;-80
2022/08/16 11:35:04;;;;;;;8.90;3.97;;;;;;;28.99;34.64;100670.13;5221531;28;20037;-79
2022/08/16 11:37:35;;;;;;;4.25;3.25;;;;;;;28.80;34.97;100672.81;5219609;28;20025;-80
2022/08/16 11:40:08;;;;;;;6.35;3.10;;;;;;;28.49;38.54;100672.91;5221777;28;20030;-80
2022/08/16 11:42:39;;;;;;;6.38;3.58;;;;;;;28.43;38.99;100676.16;5224415;28;20072;-79